sensor_id;sensor_type;location;lat;lon;timestamp;P1;durP1;ratioP1;P2;durP2;ratioP2
16957;SDS011;8595;52.542;11.974;2022-09-09T00:01:17;23.15;;;17.55;;
16957;SDS011;8595;52.542;11.974;2022-09-09T00:03:57;23.48;;;19.83;;
16957;SDS011;8595;52.542;11.974;2022-09-09T00:06:30;20.08;;;16.50;;
16957;SDS011;8595;52.542;11.974;2022-09-09T00:09:01;25.98;;;20.30;;
16957;SDS011;8595;52.542;11.974;2022-09-09T00:11:35;21.90;;;18.70;;
16957;SDS011;8595;52.542;11.974;2022-09-09T00:14:10;22.65;;;17.70;;
16957;SDS011;8595;52.542;11.974;2022-09-09T00:16:45;29.13;;;21.52;;
16957;SDS011;8595;52.542;11.974;2022-09-09T00:19:20;24.65;;;19.73;;
16957;SDS011;8595;52.542;11.974;2022-09-09T00:21:52;20.35;;;15.57;;
16957;SDS011;8595;52.542;11.974;2022-09-09T00:24:31;29.75;;;22.10;;
16957;SDS011;8595;52.542;11.974;2022-09-09T00:27:04;22.58;;;16.25;;
16957;SDS011;8595;52.542;11.974;2022-09-09T00:29:42;23.88;;;18.20;;
16957;SDS011;8595;52.542;11.974;2022-09-09T00:32:12;24.00;;;17.88;;
16957;SDS011;8595;52.542;11.974;2022-09-09T00:34:43;17.38;;;14.88;;
16957;SDS011;8595;52.542;11.974;2022-09-09T00:37:13;23.10;;;17.65;;
16957;SDS011;8595;52.542;11.974;2022-09-09T00:39:42;24.17;;;16.40;;
16957;SDS011;8595;52.542;11.974;2022-09-09T00:42:13;20.75;;;16.48;;
16957;SDS011;8595;52.542;11.974;2022-09-09T00:44:48;25.20;;;18.55;;
16957;SDS011;8595;52.542;11.974;2022-09-09T00:47:28;23.58;;;18.67;;
16957;SDS011;8595;52.542;11.974;2022-09-09T00:50:22;19.70;;;16.85;;
16957;SDS011;8595;52.542;11.974;2022-09-09T00:53:09;20.73;;;16.60;;
16957;SDS011;8595;52.542;11.974;2022-09-09T00:55:56;22.67;;;17.23;;
16957;SDS011;8595;52.542;11.974;2022-09-09T00:58:31;19.17;;;15.18;;
16957;SDS011;8595;52.542;11.974;2022-09-09T01:01:02;21.13;;;16.45;;
16957;SDS011;8595;52.542;11.974;2022-09-09T01:03:34;25.25;;;18.20;;
16957;SDS011;8595;52.542;11.974;2022-09-09T01:06:10;22.48;;;15.93;;
16957;SDS011;8595;52.542;11.974;2022-09-09T01:08:53;20.08;;;15.80;;
16957;SDS011;8595;52.542;11.974;2022-09-09T01:11:33;18.70;;;15.88;;
16957;SDS011;8595;52.542;11.974;2022-09-09T01:14:10;22.85;;;15.98;;
16957;SDS011;8595;52.542;11.974;2022-09-09T01:16:44;20.42;;;15.52;;
16957;SDS011;8595;52.542;11.974;2022-09-09T01:19:15;16.15;;;13.05;;
16957;SDS011;8595;52.542;11.974;2022-09-09T01:21:53;22.52;;;18.15;;
16957;SDS011;8595;52.542;11.974;2022-09-09T01:24:30;23.25;;;17.52;;
16957;SDS011;8595;52.542;11.974;2022-09-09T01:27:05;20.42;;;17.15;;
16957;SDS011;8595;52.542;11.974;2022-09-09T01:29:34;22.85;;;17.08;;
16957;SDS011;8595;52.542;11.974;2022-09-09T01:32:35;22.30;;;16.95;;
16957;SDS011;8595;52.542;11.974;2022-09-09T01:35:06;25.63;;;19.08;;
16957;SDS011;8595;52.542;11.974;2022-09-09T01:37:36;24.00;;;16.65;;
16957;SDS011;8595;52.542;11.974;2022-09-09T01:40:03;19.65;;;15.40;;
16957;SDS011;8595;52.542;11.974;2022-09-09T01:42:31;19.83;;;15.50;;
16957;SDS011;8595;52.542;11.974;2022-09-09T01:44:57;18.95;;;14.80;;
16957;SDS011;8595;52.542;11.974;2022-09-09T01:47:24;19.65;;;15.60;;
16957;SDS011;8595;52.542;11.974;2022-09-09T01:49:52;19.20;;;16.33;;
16957;SDS011;8595;52.542;11.974;2022-09-09T01:52:20;21.73;;;17.42;;
16957;SDS011;8595;52.542;11.974;2022-09-09T01:54:47;22.63;;;16.45;;
16957;SDS011;8595;52.542;11.974;2022-09-09T01:57:15;19.23;;;15.15;;
16957;SDS011;8595;52.542;11.974;2022-09-09T01:59:48;17.77;;;14.45;;
16957;SDS011;8595;52.542;11.974;2022-09-09T02:02:23;19.13;;;15.77;;
16957;SDS011;8595;52.542;11.974;2022-09-09T02:04:57;21.17;;;15.85;;
16957;SDS011;8595;52.542;11.974;2022-09-09T02:07:35;21.02;;;17.05;;
16957;SDS011;8595;52.542;11.974;2022-09-09T02:10:09;17.40;;;14.43;;
16957;SDS011;8595;52.542;11.974;2022-09-09T02:12:39;15.05;;;12.93;;
16957;SDS011;8595;52.542;11.974;2022-09-09T02:15:11;16.33;;;13.55;;
16957;SDS011;8595;52.542;11.974;2022-09-09T02:17:44;14.75;;;11.73;;
16957;SDS011;8595;52.542;11.974;2022-09-09T02:20:14;16.25;;;12.65;;
16957;SDS011;8595;52.542;11.974;2022-09-09T02:22:45;14.00;;;11.73;;
16957;SDS011;8595;52.542;11.974;2022-09-09T02:25:18;17.73;;;12.38;;
16957;SDS011;8595;52.542;11.974;2022-09-09T02:27:52;22.48;;;15.65;;
16957;SDS011;8595;52.542;11.974;2022-09-09T02:30:19;14.85;;;12.90;;
16957;SDS011;8595;52.542;11.974;2022-09-09T02:32:47;13.35;;;11.43;;
16957;SDS011;8595;52.542;11.974;2022-09-09T02:35:17;17.13;;;13.35;;
16957;SDS011;8595;52.542;11.974;2022-09-09T02:37:48;16.88;;;12.73;;
16957;SDS011;8595;52.542;11.974;2022-09-09T02:40:18;17.52;;;13.95;;
16957;SDS011;8595;52.542;11.974;2022-09-09T02:42:47;18.50;;;14.68;;
16957;SDS011;8595;52.542;11.974;2022-09-09T02:45:15;17.15;;;12.60;;
16957;SDS011;8595;52.542;11.974;2022-09-09T02:47:46;18.00;;;15.32;;
16957;SDS011;8595;52.542;11.974;2022-09-09T02:50:19;14.82;;;12.02;;
16957;SDS011;8595;52.542;11.974;2022-09-09T02:52:54;20.88;;;15.55;;
16957;SDS011;8595;52.542;11.974;2022-09-09T02:55:29;18.13;;;14.38;;
16957;SDS011;8595;52.542;11.974;2022-09-09T02:58:05;19.88;;;14.25;;
16957;SDS011;8595;52.542;11.974;2022-09-09T03:00:34;15.85;;;12.35;;
16957;SDS011;8595;52.542;11.974;2022-09-09T03:03:02;15.50;;;12.68;;
16957;SDS011;8595;52.542;11.974;2022-09-09T03:05:29;14.52;;;11.40;;
16957;SDS011;8595;52.542;11.974;2022-09-09T03:07:58;18.90;;;14.82;;
16957;SDS011;8595;52.542;11.974;2022-09-09T03:10:25;15.10;;;13.05;;
16957;SDS011;8595;52.542;11.974;2022-09-09T03:12:51;13.65;;;10.48;;
16957;SDS011;8595;52.542;11.974;2022-09-09T03:15:18;11.77;;;9.73;;
16957;SDS011;8595;52.542;11.974;2022-09-09T03:17:45;12.18;;;10.50;;
16957;SDS011;8595;52.542;11.974;2022-09-09T03:20:12;11.43;;;10.23;;
16957;SDS011;8595;52.542;11.974;2022-09-09T03:22:39;12.10;;;10.15;;
16957;SDS011;8595;52.542;11.974;2022-09-09T03:25:08;14.52;;;11.48;;
16957;SDS011;8595;52.542;11.974;2022-09-09T03:27:35;11.77;;;10.55;;
16957;SDS011;8595;52.542;11.974;2022-09-09T03:30:02;13.38;;;10.10;;
16957;SDS011;8595;52.542;11.974;2022-09-09T03:32:30;12.57;;;9.20;;
16957;SDS011;8595;52.542;11.974;2022-09-09T03:34:57;13.48;;;10.05;;
16957;SDS011;8595;52.542;11.974;2022-09-09T03:37:24;10.52;;;9.13;;
16957;SDS011;8595;52.542;11.974;2022-09-09T03:39:51;11.90;;;10.23;;
16957;SDS011;8595;52.542;11.974;2022-09-09T03:42:19;10.65;;;9.45;;
16957;SDS011;8595;52.542;11.974;2022-09-09T03:44:46;13.98;;;9.70;;
16957;SDS011;8595;52.542;11.974;2022-09-09T03:47:15;10.73;;;9.23;;
16957;SDS011;8595;52.542;11.974;2022-09-09T03:49:42;12.82;;;9.23;;
16957;SDS011;8595;52.542;11.974;2022-09-09T03:52:09;14.02;;;8.70;;
16957;SDS011;8595;52.542;11.974;2022-09-09T03:54:36;12.18;;;9.80;;
16957;SDS011;8595;52.542;11.974;2022-09-09T03:57:03;9.90;;;8.40;;
16957;SDS011;8595;52.542;11.974;2022-09-09T03:59:31;12.68;;;9.02;;
16957;SDS011;8595;52.542;11.974;2022-09-09T04:01:58;11.52;;;8.60;;
16957;SDS011;8595;52.542;11.974;2022-09-09T04:04:25;11.70;;;9.18;;
16957;SDS011;8595;52.542;11.974;2022-09-09T04:06:51;14.70;;;10.77;;
16957;SDS011;8595;52.542;11.974;2022-09-09T04:09:18;12.55;;;9.75;;
16957;SDS011;8595;52.542;11.974;2022-09-09T04:11:45;10.40;;;9.35;;
16957;SDS011;8595;52.542;11.974;2022-09-09T04:14:12;11.57;;;8.93;;
16957;SDS011;8595;52.542;11.974;2022-09-09T04:16:40;13.50;;;9.07;;
16957;SDS011;8595;52.542;11.974;2022-09-09T04:19:09;13.63;;;10.63;;
16957;SDS011;8595;52.542;11.974;2022-09-09T04:21:37;11.07;;;9.90;;
16957;SDS011;8595;52.542;11.974;2022-09-09T04:24:04;10.70;;;8.85;;
16957;SDS011;8595;52.542;11.974;2022-09-09T04:26:31;14.27;;;11.88;;
16957;SDS011;8595;52.542;11.974;2022-09-09T04:28:58;13.13;;;11.80;;
16957;SDS011;8595;52.542;11.974;2022-09-09T04:31:24;15.93;;;12.00;;
16957;SDS011;8595;52.542;11.974;2022-09-09T04:33:52;12.85;;;10.18;;
16957;SDS011;8595;52.542;11.974;2022-09-09T04:36:19;10.18;;;9.13;;
16957;SDS011;8595;52.542;11.974;2022-09-09T04:38:46;10.93;;;9.13;;
16957;SDS011;8595;52.542;11.974;2022-09-09T04:41:15;11.60;;;9.32;;
16957;SDS011;8595;52.542;11.974;2022-09-09T04:43:42;20.98;;;13.38;;
16957;SDS011;8595;52.542;11.974;2022-09-09T04:46:09;13.77;;;10.50;;
16957;SDS011;8595;52.542;11.974;2022-09-09T04:48:36;15.98;;;11.27;;
16957;SDS011;8595;52.542;11.974;2022-09-09T04:51:04;16.40;;;12.50;;
16957;SDS011;8595;52.542;11.974;2022-09-09T04:53:33;14.07;;;11.57;;
16957;SDS011;8595;52.542;11.974;2022-09-09T04:56:01;17.27;;;10.23;;
16957;SDS011;8595;52.542;11.974;2022-09-09T04:58:29;13.10;;;10.38;;
16957;SDS011;8595;52.542;11.974;2022-09-09T05:01:02;14.20;;;11.70;;
16957;SDS011;8595;52.542;11.974;2022-09-09T05:03:30;17.02;;;12.48;;
16957;SDS011;8595;52.542;11.974;2022-09-09T05:06:01;16.02;;;13.00;;
16957;SDS011;8595;52.542;11.974;2022-09-09T05:08:33;18.60;;;12.68;;
16957;SDS011;8595;52.542;11.974;2022-09-09T05:11:01;17.70;;;13.70;;
16957;SDS011;8595;52.542;11.974;2022-09-09T05:13:27;13.77;;;11.73;;
16957;SDS011;8595;52.542;11.974;2022-09-09T05:15:56;15.13;;;10.68;;
16957;SDS011;8595;52.542;11.974;2022-09-09T05:18:23;14.10;;;10.85;;
16957;SDS011;8595;52.542;11.974;2022-09-09T05:20:50;12.77;;;11.48;;
16957;SDS011;8595;52.542;11.974;2022-09-09T05:23:18;12.25;;;9.65;;
16957;SDS011;8595;52.542;11.974;2022-09-09T05:25:54;12.38;;;11.07;;
16957;SDS011;8595;52.542;11.974;2022-09-09T05:28:22;14.65;;;12.10;;
16957;SDS011;8595;52.542;11.974;2022-09-09T05:30:54;14.88;;;12.25;;
16957;SDS011;8595;52.542;11.974;2022-09-09T05:33:22;14.45;;;10.90;;
16957;SDS011;8595;52.542;11.974;2022-09-09T05:35:54;13.77;;;10.68;;
16957;SDS011;8595;52.542;11.974;2022-09-09T05:38:23;13.35;;;10.10;;
16957;SDS011;8595;52.542;11.974;2022-09-09T05:40:50;11.43;;;10.15;;
16957;SDS011;8595;52.542;11.974;2022-09-09T05:43:18;13.02;;;10.20;;
16957;SDS011;8595;52.542;11.974;2022-09-09T05:45:45;11.65;;;10.20;;
16957;SDS011;8595;52.542;11.974;2022-09-09T05:48:12;11.27;;;9.63;;
16957;SDS011;8595;52.542;11.974;2022-09-09T05:50:40;9.68;;;8.68;;
16957;SDS011;8595;52.542;11.974;2022-09-09T05:53:07;9.88;;;8.82;;
16957;SDS011;8595;52.542;11.974;2022-09-09T05:55:36;11.40;;;10.05;;
16957;SDS011;8595;52.542;11.974;2022-09-09T05:58:02;11.48;;;9.05;;
16957;SDS011;8595;52.542;11.974;2022-09-09T06:00:29;16.15;;;9.77;;
16957;SDS011;8595;52.542;11.974;2022-09-09T06:02:57;10.63;;;8.43;;
16957;SDS011;8595;52.542;11.974;2022-09-09T06:05:23;10.95;;;8.95;;
16957;SDS011;8595;52.542;11.974;2022-09-09T06:07:52;9.45;;;7.53;;
16957;SDS011;8595;52.542;11.974;2022-09-09T06:10:19;7.90;;;7.00;;
16957;SDS011;8595;52.542;11.974;2022-09-09T06:12:47;14.32;;;10.27;;
16957;SDS011;8595;52.542;11.974;2022-09-09T06:15:13;14.95;;;9.27;;
16957;SDS011;8595;52.542;11.974;2022-09-09T06:17:40;11.15;;;9.02;;
16957;SDS011;8595;52.542;11.974;2022-09-09T06:20:08;11.27;;;7.88;;
16957;SDS011;8595;52.542;11.974;2022-09-09T06:22:35;10.88;;;8.15;;
16957;SDS011;8595;52.542;11.974;2022-09-09T06:25:02;10.88;;;7.00;;
16957;SDS011;8595;52.542;11.974;2022-09-09T06:27:28;12.73;;;7.47;;
16957;SDS011;8595;52.542;11.974;2022-09-09T06:29:57;10.60;;;7.03;;
16957;SDS011;8595;52.542;11.974;2022-09-09T06:32:24;8.65;;;7.80;;
16957;SDS011;8595;52.542;11.974;2022-09-09T06:34:51;10.95;;;6.97;;
16957;SDS011;8595;52.542;11.974;2022-09-09T06:37:19;8.15;;;6.90;;
16957;SDS011;8595;52.542;11.974;2022-09-09T06:39:45;8.93;;;6.25;;
16957;SDS011;8595;52.542;11.974;2022-09-09T06:42:13;9.68;;;5.95;;
16957;SDS011;8595;52.542;11.974;2022-09-09T06:44:40;7.15;;;6.32;;
16957;SDS011;8595;52.542;11.974;2022-09-09T06:47:08;8.73;;;5.72;;
16957;SDS011;8595;52.542;11.974;2022-09-09T06:49:36;6.97;;;5.60;;
16957;SDS011;8595;52.542;11.974;2022-09-09T06:52:02;10.73;;;5.82;;
16957;SDS011;8595;52.542;11.974;2022-09-09T06:54:29;11.20;;;6.70;;
16957;SDS011;8595;52.542;11.974;2022-09-09T06:56:56;10.02;;;6.15;;
16957;SDS011;8595;52.542;11.974;2022-09-09T06:59:23;9.80;;;5.53;;
16957;SDS011;8595;52.542;11.974;2022-09-09T07:01:50;6.32;;;5.07;;
16957;SDS011;8595;52.542;11.974;2022-09-09T07:04:20;8.57;;;5.55;;
16957;SDS011;8595;52.542;11.974;2022-09-09T07:06:47;6.55;;;4.80;;
16957;SDS011;8595;52.542;11.974;2022-09-09T07:09:14;8.68;;;5.40;;
16957;SDS011;8595;52.542;11.974;2022-09-09T07:11:42;9.40;;;5.57;;
16957;SDS011;8595;52.542;11.974;2022-09-09T07:14:10;6.00;;;5.40;;
16957;SDS011;8595;52.542;11.974;2022-09-09T07:16:39;10.90;;;5.47;;
16957;SDS011;8595;52.542;11.974;2022-09-09T07:19:06;7.07;;;4.95;;
16957;SDS011;8595;52.542;11.974;2022-09-09T07:21:34;10.60;;;6.32;;
16957;SDS011;8595;52.542;11.974;2022-09-09T07:24:01;7.50;;;4.80;;
16957;SDS011;8595;52.542;11.974;2022-09-09T07:26:32;5.35;;;4.25;;
16957;SDS011;8595;52.542;11.974;2022-09-09T07:29:00;7.18;;;5.30;;
16957;SDS011;8595;52.542;11.974;2022-09-09T07:31:27;9.30;;;5.35;;
16957;SDS011;8595;52.542;11.974;2022-09-09T07:33:56;5.45;;;3.88;;
16957;SDS011;8595;52.542;11.974;2022-09-09T07:36:23;9.05;;;4.63;;
16957;SDS011;8595;52.542;11.974;2022-09-09T07:38:52;9.15;;;4.20;;
16957;SDS011;8595;52.542;11.974;2022-09-09T07:41:21;7.60;;;4.25;;
16957;SDS011;8595;52.542;11.974;2022-09-09T07:43:49;5.65;;;4.22;;
16957;SDS011;8595;52.542;11.974;2022-09-09T07:46:19;7.30;;;4.57;;
16957;SDS011;8595;52.542;11.974;2022-09-09T07:48:47;8.10;;;4.20;;
16957;SDS011;8595;52.542;11.974;2022-09-09T07:51:16;6.25;;;4.20;;
16957;SDS011;8595;52.542;11.974;2022-09-09T07:53:44;7.82;;;4.80;;
16957;SDS011;8595;52.542;11.974;2022-09-09T07:56:14;5.68;;;3.75;;
16957;SDS011;8595;52.542;11.974;2022-09-09T07:58:44;5.35;;;3.60;;
16957;SDS011;8595;52.542;11.974;2022-09-09T08:01:13;4.60;;;3.17;;
16957;SDS011;8595;52.542;11.974;2022-09-09T08:03:42;8.43;;;3.60;;
16957;SDS011;8595;52.542;11.974;2022-09-09T08:06:09;7.45;;;3.90;;
16957;SDS011;8595;52.542;11.974;2022-09-09T08:08:37;6.13;;;3.58;;
16957;SDS011;8595;52.542;11.974;2022-09-09T08:11:08;7.78;;;3.88;;
16957;SDS011;8595;52.542;11.974;2022-09-09T08:13:43;11.27;;;3.55;;
16957;SDS011;8595;52.542;11.974;2022-09-09T08:16:11;4.35;;;3.00;;
16957;SDS011;8595;52.542;11.974;2022-09-09T08:18:40;4.65;;;2.30;;
16957;SDS011;8595;52.542;11.974;2022-09-09T08:21:08;4.70;;;2.83;;
16957;SDS011;8595;52.542;11.974;2022-09-09T08:23:37;7.28;;;3.97;;
16957;SDS011;8595;52.542;11.974;2022-09-09T08:26:06;4.55;;;2.97;;
16957;SDS011;8595;52.542;11.974;2022-09-09T08:28:35;4.10;;;2.75;;
16957;SDS011;8595;52.542;11.974;2022-09-09T08:31:10;6.65;;;2.60;;
16957;SDS011;8595;52.542;11.974;2022-09-09T08:33:39;5.07;;;2.72;;
16957;SDS011;8595;52.542;11.974;2022-09-09T08:36:06;5.53;;;2.60;;
16957;SDS011;8595;52.542;11.974;2022-09-09T08:38:35;5.95;;;2.55;;
16957;SDS011;8595;52.542;11.974;2022-09-09T08:41:06;3.17;;;2.30;;
16957;SDS011;8595;52.542;11.974;2022-09-09T08:43:58;6.40;;;3.08;;
16957;SDS011;8595;52.542;11.974;2022-09-09T08:46:33;4.25;;;2.55;;
16957;SDS011;8595;52.542;11.974;2022-09-09T08:49:14;4.65;;;2.83;;
16957;SDS011;8595;52.542;11.974;2022-09-09T08:51:48;6.80;;;2.75;;
16957;SDS011;8595;52.542;11.974;2022-09-09T08:54:15;6.53;;;3.03;;
16957;SDS011;8595;52.542;11.974;2022-09-09T08:56:43;5.60;;;2.90;;
16957;SDS011;8595;52.542;11.974;2022-09-09T08:59:09;4.93;;;2.50;;
16957;SDS011;8595;52.542;11.974;2022-09-09T09:01:44;4.40;;;2.90;;
16957;SDS011;8595;52.542;11.974;2022-09-09T09:04:29;4.65;;;2.75;;
16957;SDS011;8595;52.542;11.974;2022-09-09T09:07:07;6.60;;;2.95;;
16957;SDS011;8595;52.542;11.974;2022-09-09T09:09:46;5.00;;;2.70;;
16957;SDS011;8595;52.542;11.974;2022-09-09T09:12:19;9.13;;;3.20;;
16957;SDS011;8595;52.542;11.974;2022-09-09T09:14:48;8.95;;;3.08;;
16957;SDS011;8595;52.542;11.974;2022-09-09T09:17:17;4.35;;;3.00;;
16957;SDS011;8595;52.542;11.974;2022-09-09T09:19:46;5.53;;;2.40;;
16957;SDS011;8595;52.542;11.974;2022-09-09T09:22:16;5.00;;;2.70;;
16957;SDS011;8595;52.542;11.974;2022-09-09T09:24:49;7.65;;;3.00;;
16957;SDS011;8595;52.542;11.974;2022-09-09T09:27:20;7.10;;;2.70;;
16957;SDS011;8595;52.542;11.974;2022-09-09T09:29:54;3.95;;;2.33;;
16957;SDS011;8595;52.542;11.974;2022-09-09T09:32:24;6.03;;;2.55;;
16957;SDS011;8595;52.542;11.974;2022-09-09T09:34:54;6.80;;;3.10;;
16957;SDS011;8595;52.542;11.974;2022-09-09T09:37:25;4.68;;;2.38;;
16957;SDS011;8595;52.542;11.974;2022-09-09T09:39:55;5.28;;;2.58;;
16957;SDS011;8595;52.542;11.974;2022-09-09T09:42:22;6.60;;;1.90;;
16957;SDS011;8595;52.542;11.974;2022-09-09T09:44:49;4.45;;;2.50;;
16957;SDS011;8595;52.542;11.974;2022-09-09T09:47:17;5.28;;;2.03;;
16957;SDS011;8595;52.542;11.974;2022-09-09T09:49:53;5.40;;;2.10;;
16957;SDS011;8595;52.542;11.974;2022-09-09T09:52:21;7.25;;;2.17;;
16957;SDS011;8595;52.542;11.974;2022-09-09T09:54:49;4.20;;;1.95;;
16957;SDS011;8595;52.542;11.974;2022-09-09T09:57:17;4.07;;;2.10;;
16957;SDS011;8595;52.542;11.974;2022-09-09T09:59:49;8.05;;;2.33;;
16957;SDS011;8595;52.542;11.974;2022-09-09T10:02:31;3.70;;;2.17;;
16957;SDS011;8595;52.542;11.974;2022-09-09T10:05:05;6.70;;;2.67;;
16957;SDS011;8595;52.542;11.974;2022-09-09T10:07:38;3.08;;;1.60;;
16957;SDS011;8595;52.542;11.974;2022-09-09T10:10:05;6.70;;;1.80;;
16957;SDS011;8595;52.542;11.974;2022-09-09T10:12:40;4.88;;;1.55;;
16957;SDS011;8595;52.542;11.974;2022-09-09T10:15:23;2.88;;;1.40;;
16957;SDS011;8595;52.542;11.974;2022-09-09T10:18:02;3.58;;;1.60;;
16957;SDS011;8595;52.542;11.974;2022-09-09T10:20:42;3.03;;;1.33;;
16957;SDS011;8595;52.542;11.974;2022-09-09T10:23:19;3.42;;;1.20;;
16957;SDS011;8595;52.542;11.974;2022-09-09T10:25:58;4.13;;;1.55;;
16957;SDS011;8595;52.542;11.974;2022-09-09T10:28:37;3.05;;;1.42;;
16957;SDS011;8595;52.542;11.974;2022-09-09T10:31:18;7.32;;;1.63;;
16957;SDS011;8595;52.542;11.974;2022-09-09T10:33:51;7.38;;;1.80;;
16957;SDS011;8595;52.542;11.974;2022-09-09T10:36:27;2.15;;;1.20;;
16957;SDS011;8595;52.542;11.974;2022-09-09T10:38:57;3.30;;;1.42;;
16957;SDS011;8595;52.542;11.974;2022-09-09T10:41:37;3.70;;;1.25;;
16957;SDS011;8595;52.542;11.974;2022-09-09T10:44:19;3.38;;;1.60;;
16957;SDS011;8595;52.542;11.974;2022-09-09T10:47:14;3.03;;;1.58;;
16957;SDS011;8595;52.542;11.974;2022-09-09T10:49:57;4.63;;;1.80;;
16957;SDS011;8595;52.542;11.974;2022-09-09T10:52:38;3.78;;;2.08;;
16957;SDS011;8595;52.542;11.974;2022-09-09T10:55:10;5.75;;;2.08;;
16957;SDS011;8595;52.542;11.974;2022-09-09T10:57:41;4.07;;;1.98;;
16957;SDS011;8595;52.542;11.974;2022-09-09T11:00:14;4.43;;;2.42;;
16957;SDS011;8595;52.542;11.974;2022-09-09T11:02:43;7.57;;;2.47;;
16957;SDS011;8595;52.542;11.974;2022-09-09T11:05:13;3.30;;;1.73;;
16957;SDS011;8595;52.542;11.974;2022-09-09T11:07:46;6.13;;;2.15;;
16957;SDS011;8595;52.542;11.974;2022-09-09T11:10:19;5.88;;;1.77;;
16957;SDS011;8595;52.542;11.974;2022-09-09T11:12:50;3.90;;;2.00;;
16957;SDS011;8595;52.542;11.974;2022-09-09T11:15:26;6.15;;;1.80;;
16957;SDS011;8595;52.542;11.974;2022-09-09T11:17:58;6.55;;;2.17;;
16957;SDS011;8595;52.542;11.974;2022-09-09T11:20:27;6.57;;;2.10;;
16957;SDS011;8595;52.542;11.974;2022-09-09T11:22:57;4.50;;;1.95;;
16957;SDS011;8595;52.542;11.974;2022-09-09T11:25:28;5.60;;;2.03;;
16957;SDS011;8595;52.542;11.974;2022-09-09T11:31:06;3.72;;;1.65;;
16957;SDS011;8595;52.542;11.974;2022-09-09T11:34:01;6.28;;;2.03;;
16957;SDS011;8595;52.542;11.974;2022-09-09T11:37:00;5.57;;;2.45;;
16957;SDS011;8595;52.542;11.974;2022-09-09T11:39:42;6.72;;;2.65;;
16957;SDS011;8595;52.542;11.974;2022-09-09T11:42:18;8.10;;;2.00;;
16957;SDS011;8595;52.542;11.974;2022-09-09T11:44:46;5.95;;;1.95;;
16957;SDS011;8595;52.542;11.974;2022-09-09T11:47:19;5.75;;;1.70;;
16957;SDS011;8595;52.542;11.974;2022-09-09T11:49:49;5.25;;;1.55;;
16957;SDS011;8595;52.542;11.974;2022-09-09T11:52:20;5.60;;;1.50;;
16957;SDS011;8595;52.542;11.974;2022-09-09T11:54:52;5.20;;;1.80;;
16957;SDS011;8595;52.542;11.974;2022-09-09T11:57:23;5.18;;;1.73;;
16957;SDS011;8595;52.542;11.974;2022-09-09T11:59:53;6.10;;;2.20;;
16957;SDS011;8595;52.542;11.974;2022-09-09T12:02:22;4.90;;;1.90;;
16957;SDS011;8595;52.542;11.974;2022-09-09T12:04:54;3.40;;;1.80;;
16957;SDS011;8595;52.542;11.974;2022-09-09T12:07:30;3.20;;;1.30;;
16957;SDS011;8595;52.542;11.974;2022-09-09T12:10:03;7.22;;;1.60;;
16957;SDS011;8595;52.542;11.974;2022-09-09T12:12:44;3.08;;;1.27;;
16957;SDS011;8595;52.542;11.974;2022-09-09T12:15:19;6.32;;;1.70;;
16957;SDS011;8595;52.542;11.974;2022-09-09T12:17:54;7.78;;;2.00;;
16957;SDS011;8595;52.542;11.974;2022-09-09T12:20:22;4.82;;;1.60;;
16957;SDS011;8595;52.542;11.974;2022-09-09T12:23:00;7.20;;;1.60;;
16957;SDS011;8595;52.542;11.974;2022-09-09T12:28:56;3.75;;;1.35;;
16957;SDS011;8595;52.542;11.974;2022-09-09T12:31:31;4.90;;;1.67;;
16957;SDS011;8595;52.542;11.974;2022-09-09T12:34:09;5.15;;;1.50;;
16957;SDS011;8595;52.542;11.974;2022-09-09T12:36:37;2.90;;;1.15;;
16957;SDS011;8595;52.542;11.974;2022-09-09T12:39:09;3.70;;;1.30;;
16957;SDS011;8595;52.542;11.974;2022-09-09T12:41:50;3.38;;;1.42;;
16957;SDS011;8595;52.542;11.974;2022-09-09T12:44:23;4.57;;;1.50;;
16957;SDS011;8595;52.542;11.974;2022-09-09T12:46:50;8.60;;;1.85;;
16957;SDS011;8595;52.542;11.974;2022-09-09T12:49:27;5.20;;;1.73;;
16957;SDS011;8595;52.542;11.974;2022-09-09T12:51:59;3.90;;;1.50;;
16957;SDS011;8595;52.542;11.974;2022-09-09T12:54:29;3.53;;;1.52;;
16957;SDS011;8595;52.542;11.974;2022-09-09T12:56:56;3.20;;;1.40;;
16957;SDS011;8595;52.542;11.974;2022-09-09T12:59:25;3.28;;;1.27;;
16957;SDS011;8595;52.542;11.974;2022-09-09T13:02:00;4.75;;;1.52;;
16957;SDS011;8595;52.542;11.974;2022-09-09T13:04:27;6.32;;;1.58;;
16957;SDS011;8595;52.542;11.974;2022-09-09T13:06:54;7.72;;;2.20;;
16957;SDS011;8595;52.542;11.974;2022-09-09T13:09:35;2.30;;;1.40;;
16957;SDS011;8595;52.542;11.974;2022-09-09T13:12:02;5.35;;;1.67;;
16957;SDS011;8595;52.542;11.974;2022-09-09T13:14:33;7.82;;;1.90;;
16957;SDS011;8595;52.542;11.974;2022-09-09T13:17:04;7.80;;;1.77;;
16957;SDS011;8595;52.542;11.974;2022-09-09T13:19:32;3.30;;;1.95;;
16957;SDS011;8595;52.542;11.974;2022-09-09T13:22:11;4.20;;;1.50;;
16957;SDS011;8595;52.542;11.974;2022-09-09T13:24:38;7.15;;;1.45;;
16957;SDS011;8595;52.542;11.974;2022-09-09T13:27:19;4.47;;;1.60;;
16957;SDS011;8595;52.542;11.974;2022-09-09T13:29:54;3.00;;;1.13;;
16957;SDS011;8595;52.542;11.974;2022-09-09T13:32:22;3.72;;;1.27;;
16957;SDS011;8595;52.542;11.974;2022-09-09T13:34:52;6.38;;;1.60;;
16957;SDS011;8595;52.542;11.974;2022-09-09T13:37:21;5.32;;;1.42;;
16957;SDS011;8595;52.542;11.974;2022-09-09T13:39:53;6.03;;;1.65;;
16957;SDS011;8595;52.542;11.974;2022-09-09T13:42:24;3.95;;;1.65;;
16957;SDS011;8595;52.542;11.974;2022-09-09T13:44:54;5.40;;;1.52;;
16957;SDS011;8595;52.542;11.974;2022-09-09T13:47:26;5.43;;;1.48;;
16957;SDS011;8595;52.542;11.974;2022-09-09T13:49:56;5.65;;;1.80;;
16957;SDS011;8595;52.542;11.974;2022-09-09T13:52:23;5.70;;;1.83;;
16957;SDS011;8595;52.542;11.974;2022-09-09T13:54:51;3.53;;;1.13;;
16957;SDS011;8595;52.542;11.974;2022-09-09T13:57:20;2.30;;;1.08;;
16957;SDS011;8595;52.542;11.974;2022-09-09T13:59:48;7.05;;;1.35;;
16957;SDS011;8595;52.542;11.974;2022-09-09T14:02:16;5.07;;;1.77;;
16957;SDS011;8595;52.542;11.974;2022-09-09T14:04:43;4.70;;;1.23;;
16957;SDS011;8595;52.542;11.974;2022-09-09T14:07:10;4.90;;;1.40;;
16957;SDS011;8595;52.542;11.974;2022-09-09T14:09:38;4.55;;;1.20;;
16957;SDS011;8595;52.542;11.974;2022-09-09T14:12:05;5.90;;;1.20;;
16957;SDS011;8595;52.542;11.974;2022-09-09T14:14:34;4.38;;;1.20;;
16957;SDS011;8595;52.542;11.974;2022-09-09T14:17:01;3.95;;;1.50;;
16957;SDS011;8595;52.542;11.974;2022-09-09T14:19:29;10.75;;;1.85;;
16957;SDS011;8595;52.542;11.974;2022-09-09T14:21:56;9.93;;;2.17;;
16957;SDS011;8595;52.542;11.974;2022-09-09T14:24:23;4.03;;;1.40;;
16957;SDS011;8595;52.542;11.974;2022-09-09T14:26:51;4.43;;;1.80;;
16957;SDS011;8595;52.542;11.974;2022-09-09T14:29:17;7.63;;;1.95;;
16957;SDS011;8595;52.542;11.974;2022-09-09T14:31:44;4.43;;;1.83;;
16957;SDS011;8595;52.542;11.974;2022-09-09T14:34:11;5.80;;;2.10;;
16957;SDS011;8595;52.542;11.974;2022-09-09T14:36:40;9.60;;;2.13;;
16957;SDS011;8595;52.542;11.974;2022-09-09T14:39:07;7.57;;;2.63;;
16957;SDS011;8595;52.542;11.974;2022-09-09T14:41:33;8.35;;;2.20;;
16957;SDS011;8595;52.542;11.974;2022-09-09T14:44:00;7.05;;;1.92;;
16957;SDS011;8595;52.542;11.974;2022-09-09T14:46:27;5.78;;;2.65;;
16957;SDS011;8595;52.542;11.974;2022-09-09T14:48:54;9.35;;;2.53;;
16957;SDS011;8595;52.542;11.974;2022-09-09T14:51:22;10.93;;;2.28;;
16957;SDS011;8595;52.542;11.974;2022-09-09T14:53:52;14.02;;;2.25;;
16957;SDS011;8595;52.542;11.974;2022-09-09T14:56:21;6.15;;;2.20;;
16957;SDS011;8595;52.542;11.974;2022-09-09T14:58:49;10.27;;;2.15;;
16957;SDS011;8595;52.542;11.974;2022-09-09T15:01:17;6.18;;;2.72;;
16957;SDS011;8595;52.542;11.974;2022-09-09T15:03:48;4.63;;;1.48;;
16957;SDS011;8595;52.542;11.974;2022-09-09T15:06:18;4.90;;;1.90;;